createdAt,value
2018-01-08T00:01:53.427Z,26.80
2018-01-08T00:04:21.046Z,28.20
2018-01-08T00:06:48.658Z,21.43
2018-01-08T00:09:16.317Z,23.90
2018-01-08T00:11:44.406Z,23.80
2018-01-08T00:14:12.023Z,25.60
2018-01-08T00:16:39.610Z,23.33
2018-01-08T00:19:07.245Z,23.20
2018-01-08T00:21:35.613Z,21.40
2018-01-08T00:24:04.017Z,30.83
2018-01-08T00:26:31.628Z,33.80
2018-01-08T00:28:59.517Z,30.50
2018-01-08T00:31:27.115Z,30.03
2018-01-08T00:33:54.726Z,25.70
2018-01-08T00:36:22.362Z,32.60
2018-01-08T00:38:49.959Z,32.77
2018-01-08T00:41:17.587Z,33.73
2018-01-08T00:43:45.181Z,38.33
2018-01-08T00:46:12.778Z,35.70
2018-01-08T00:48:41.168Z,37.53
2018-01-08T00:51:08.766Z,38.53
2018-01-08T00:53:36.374Z,48.03
2018-01-08T00:56:04.112Z,44.57
2018-01-08T00:58:31.732Z,44.67
2018-01-08T01:00:59.336Z,49.27
2018-01-08T01:03:26.950Z,51.33
2018-01-08T01:05:56.096Z,47.60
2018-01-08T01:08:23.689Z,44.87
2018-01-08T01:10:51.290Z,48.90
2018-01-08T01:13:18.918Z,56.97
2018-01-08T01:15:46.525Z,55.53
2018-01-08T01:18:14.130Z,49.73
2018-01-08T01:20:41.725Z,49.10
2018-01-08T01:23:09.596Z,53.50
2018-01-08T01:25:37.201Z,46.83
2018-01-08T01:28:05.569Z,45.50
2018-01-08T01:30:33.955Z,54.37
2018-01-08T01:33:01.553Z,50.87
2018-01-08T01:35:29.191Z,51.83
2018-01-08T01:37:56.784Z,45.37
2018-01-08T01:40:24.405Z,46.67
2018-01-08T01:42:52.005Z,43.80
2018-01-08T01:45:20.391Z,46.07
2018-01-08T01:47:48.749Z,43.60
2018-01-08T01:50:16.345Z,44.23
2018-01-08T01:52:43.941Z,60.03
2018-01-08T01:55:11.547Z,46.97
2018-01-08T01:57:39.159Z,40.80
2018-01-08T02:00:06.767Z,42.57
2018-01-08T02:02:34.551Z,46.97
2018-01-08T02:05:02.149Z,53.83
2018-01-08T02:07:29.882Z,41.33
2018-01-08T02:09:57.484Z,46.27
2018-01-08T02:12:25.081Z,38.13
2018-01-08T02:14:52.688Z,42.40
2018-01-08T02:17:21.060Z,44.20
2018-01-08T02:19:48.691Z,44.07
2018-01-08T02:22:16.292Z,43.60
2018-01-08T02:24:44.685Z,45.73
2018-01-08T02:27:13.039Z,35.70
2018-01-08T02:29:40.633Z,40.50
2018-01-08T02:32:09.027Z,44.77
2018-01-08T02:34:37.401Z,41.90
2018-01-08T02:37:05.797Z,40.47
2018-01-08T02:39:34.154Z,42.53
2018-01-08T02:42:03.278Z,44.90
2018-01-08T02:44:31.633Z,42.13
2018-01-08T02:47:00.756Z,47.70
2018-01-08T02:49:29.126Z,40.70
2018-01-08T02:51:56.712Z,36.30
2018-01-08T02:54:24.327Z,50.40
2018-01-08T02:56:52.112Z,44.50
2018-01-08T02:59:19.734Z,48.63
2018-01-08T03:01:47.291Z,57.57
2018-01-08T03:04:14.910Z,59.70
2018-01-08T03:06:43.304Z,46.27
2018-01-08T03:09:10.894Z,58.47
2018-01-08T03:11:38.538Z,50.20
2018-01-08T03:14:06.124Z,64.67
2018-01-08T03:16:34.767Z,73.63
2018-01-08T03:19:02.431Z,68.77
2018-01-08T03:21:31.546Z,74.77
2018-01-08T03:23:59.935Z,74.73
2018-01-08T03:26:27.523Z,66.37
2018-01-08T03:28:55.899Z,64.07
2018-01-08T03:31:24.264Z,68.47
2018-01-08T03:33:51.906Z,75.50
2018-01-08T03:36:19.507Z,70.10
2018-01-08T03:38:47.127Z,69.40
2018-01-08T03:41:14.931Z,79.87
2018-01-08T03:43:43.282Z,68.57
2018-01-08T03:46:10.905Z,71.07
2018-01-08T03:48:39.273Z,66.70
2018-01-08T03:51:06.881Z,61.57
2018-01-08T03:53:34.491Z,69.60
2018-01-08T03:56:02.893Z,68.10
2018-01-08T03:58:31.507Z,62.10
2018-01-08T04:00:59.111Z,79.67
2018-01-08T04:03:26.739Z,63.60
2018-01-08T04:05:54.333Z,78.97
2018-01-08T04:08:22.203Z,66.13
2018-01-08T04:10:49.798Z,68.63
2018-01-08T04:13:18.160Z,65.10
2018-01-08T04:15:45.800Z,63.27
2018-01-08T04:18:13.409Z,73.80
2018-01-08T04:20:42.103Z,68.13
2018-01-08T04:23:10.470Z,66.87
2018-01-08T04:25:38.108Z,66.87
2018-01-08T04:28:05.730Z,61.90
2018-01-08T04:30:33.314Z,61.20
2018-01-08T04:33:02.030Z,64.13
2018-01-08T04:35:29.627Z,69.10
2018-01-08T04:37:58.748Z,60.40
2018-01-08T04:40:26.484Z,80.33
2018-01-08T04:42:54.086Z,65.93
2018-01-08T04:45:22.490Z,59.63
2018-01-08T04:47:50.074Z,62.63
2018-01-08T04:50:18.780Z,65.57
2018-01-08T04:52:47.201Z,60.50
2018-01-08T04:55:14.987Z,65.80
2018-01-08T04:57:43.353Z,68.83
2018-01-08T05:00:10.974Z,56.77
2018-01-08T05:02:38.665Z,59.00
2018-01-08T05:05:06.291Z,55.37
2018-01-08T05:07:33.924Z,60.17
2018-01-08T05:10:01.523Z,57.30
2018-01-08T05:12:29.417Z,56.00
2018-01-08T05:14:57.021Z,66.73
2018-01-08T05:17:24.663Z,60.57
2018-01-08T05:19:52.264Z,60.97
2018-01-08T05:24:42.468Z,68.63
2018-01-08T05:27:10.191Z,63.80
2018-01-08T05:29:37.793Z,66.57
2018-01-08T05:32:05.419Z,60.97
2018-01-08T05:34:33.019Z,67.83
2018-01-08T05:37:00.647Z,63.43
2018-01-08T05:39:28.305Z,60.23
2018-01-08T05:41:55.938Z,58.83
2018-01-08T05:44:23.614Z,65.43
2018-01-08T05:46:52.036Z,56.83
2018-01-08T05:49:20.402Z,58.83
2018-01-08T05:51:48.049Z,62.73
2018-01-08T05:54:15.690Z,57.93
2018-01-08T05:56:43.280Z,56.60
2018-01-08T05:59:11.630Z,54.97
2018-01-08T06:01:39.266Z,50.57
2018-01-08T06:04:06.886Z,52.87
2018-01-08T06:06:35.616Z,52.63
2018-01-08T06:09:03.186Z,56.67
2018-01-08T06:11:30.792Z,54.13
2018-01-08T06:13:58.434Z,59.90
2018-01-08T06:16:26.042Z,49.37
2018-01-08T06:18:53.666Z,58.27
2018-01-08T06:21:21.282Z,52.30
2018-01-08T06:23:49.663Z,57.77
2018-01-08T06:26:18.050Z,56.07
2018-01-08T06:28:46.405Z,51.80
2018-01-08T06:31:14.042Z,54.93
2018-01-08T06:33:41.641Z,45.17
2018-01-08T06:36:10.020Z,53.30
2018-01-08T06:38:37.675Z,51.13
2018-01-08T06:41:05.245Z,46.07
2018-01-08T06:43:33.125Z,54.43
2018-01-08T06:46:01.493Z,50.53
2018-01-08T06:48:29.451Z,45.60
2018-01-08T06:50:57.075Z,45.63
2018-01-08T06:53:24.863Z,44.20
2018-01-08T06:55:52.519Z,49.27
2018-01-08T06:58:20.188Z,51.50
2018-01-08T07:00:47.799Z,38.63
2018-01-08T07:03:15.409Z,45.57
2018-01-08T07:05:43.818Z,48.27
2018-01-08T07:08:11.511Z,44.67
2018-01-08T07:10:39.885Z,44.10
2018-01-08T07:13:07.523Z,54.33
2018-01-08T07:15:35.120Z,48.67
2018-01-08T07:18:02.726Z,40.83
2018-01-08T07:20:31.122Z,45.00
2018-01-08T07:22:59.482Z,42.37
2018-01-08T07:25:27.094Z,38.27
2018-01-08T07:27:54.695Z,43.03
2018-01-08T07:30:22.310Z,45.10
2018-01-08T07:32:50.662Z,52.47
2018-01-08T07:35:19.910Z,41.57
2018-01-08T07:37:47.528Z,50.13
2018-01-08T07:40:15.892Z,44.03
2018-01-08T07:42:43.770Z,47.20
2018-01-08T07:45:11.374Z,47.80
2018-01-08T07:47:39.751Z,50.17
2018-01-08T07:50:08.124Z,42.33
2018-01-08T07:52:36.514Z,53.80
2018-01-08T07:55:05.054Z,50.40
2018-01-08T07:57:32.667Z,50.73
2018-01-08T08:00:01.029Z,50.77
2018-01-08T08:02:28.660Z,54.80
2018-01-08T08:04:56.264Z,45.93
2018-01-08T08:07:23.883Z,46.90
2018-01-08T08:09:51.515Z,49.10
2018-01-08T08:12:20.242Z,52.03
2018-01-08T08:14:47.833Z,48.53
2018-01-08T08:17:15.456Z,44.47
2018-01-08T08:19:43.070Z,53.10
2018-01-08T08:22:10.696Z,47.70
2018-01-08T08:24:38.325Z,39.60
2018-01-08T08:27:05.919Z,40.90
2018-01-08T08:29:33.539Z,45.07
2018-01-08T08:32:01.171Z,44.80
2018-01-08T08:34:28.782Z,37.27
2018-01-08T08:36:57.161Z,35.77
2018-01-08T08:39:24.772Z,42.80
2018-01-08T08:41:52.654Z,38.90
2018-01-08T08:44:20.259Z,45.37
2018-01-08T08:46:49.362Z,43.97
2018-01-08T08:49:17.758Z,45.60
2018-01-08T08:51:45.354Z,43.70
2018-01-08T08:54:12.991Z,40.13
2018-01-08T08:56:41.511Z,36.37
2018-01-08T08:59:09.144Z,34.23
2018-01-08T09:01:37.537Z,36.23
2018-01-08T09:04:05.907Z,41.93
2018-01-08T09:06:33.531Z,33.27
2018-01-08T09:09:01.131Z,36.83
2018-01-08T09:11:28.786Z,36.93
2018-01-08T09:13:56.391Z,40.97
2018-01-08T09:16:24.772Z,43.50
2018-01-08T09:18:53.177Z,41.17
2018-01-08T09:21:20.774Z,41.57
2018-01-08T09:23:48.388Z,38.37
2018-01-08T09:26:16.749Z,36.03
2018-01-08T09:28:44.384Z,48.40
2018-01-08T09:31:11.990Z,38.17
2018-01-08T09:33:40.347Z,41.77
2018-01-08T09:36:08.017Z,41.73
2018-01-08T09:38:35.624Z,44.77
2018-01-08T09:41:03.261Z,46.00
2018-01-08T09:43:30.862Z,37.47
2018-01-08T09:45:58.533Z,40.67
2018-01-08T09:48:26.146Z,37.20
2018-01-08T09:50:53.886Z,36.27
2018-01-08T09:53:21.514Z,36.63
2018-01-08T09:55:49.908Z,39.60
2018-01-08T09:58:17.523Z,35.00
2018-01-08T10:00:45.130Z,41.03
2018-01-08T10:03:25.418Z,42.50
2018-01-08T10:06:05.676Z,41.60
2018-01-08T10:08:45.069Z,39.20
2018-01-08T10:11:25.311Z,41.07
2018-01-08T10:14:04.739Z,41.90
2018-01-08T10:16:44.895Z,46.13
2018-01-08T10:19:24.516Z,40.17
2018-01-08T10:21:52.063Z,33.70
2018-01-08T10:24:19.656Z,35.53
2018-01-08T10:26:47.291Z,41.97
2018-01-08T10:29:14.889Z,29.83
2018-01-08T10:31:42.649Z,36.70
2018-01-08T10:34:11.867Z,38.43
2018-01-08T10:36:39.466Z,44.20
2018-01-08T10:39:07.067Z,37.87
2018-01-08T10:41:40.325Z,32.77
2018-01-08T10:44:13.627Z,37.70
2018-01-08T10:46:46.963Z,36.40
2018-01-08T10:49:20.143Z,30.60
2018-01-08T10:51:47.260Z,39.93
2018-01-08T10:54:14.872Z,35.77
2018-01-08T10:56:42.478Z,36.30
2018-01-08T10:59:10.858Z,45.40
2018-01-08T11:01:44.767Z,54.70
2018-01-08T11:04:13.142Z,49.10
2018-01-08T11:06:40.735Z,48.93
2018-01-08T11:09:08.370Z,44.47
2018-01-08T11:11:35.959Z,49.73
2018-01-08T11:14:03.580Z,50.83
2018-01-08T11:16:31.173Z,47.33
2018-01-08T11:18:59.512Z,34.47
2018-01-08T11:21:27.144Z,42.87
2018-01-08T11:23:54.739Z,46.17
2018-01-08T11:26:22.332Z,53.40
2018-01-08T11:28:50.738Z,55.83
2018-01-08T11:31:19.091Z,48.00
2018-01-08T11:33:46.725Z,46.50
2018-01-08T11:36:14.331Z,54.97
2018-01-08T11:38:43.521Z,39.30
2018-01-08T11:41:11.186Z,48.50
2018-01-08T11:43:38.850Z,47.70
2018-01-08T11:46:06.541Z,42.00
2018-01-08T11:48:34.139Z,46.90
2018-01-08T11:51:01.699Z,30.60
2018-01-08T11:53:29.293Z,39.13
2018-01-08T11:55:56.911Z,40.73
2018-01-08T11:58:25.267Z,39.80
2018-01-08T12:00:53.635Z,41.13
2018-01-08T12:03:21.261Z,56.50
2018-01-08T12:05:48.867Z,34.67
2018-01-08T12:08:16.481Z,37.57
2018-01-08T12:10:44.833Z,29.00
2018-01-08T12:13:12.471Z,47.87
2018-01-08T12:15:40.080Z,36.97
2018-01-08T12:18:07.676Z,37.63
2018-01-08T12:20:35.278Z,28.40
2018-01-08T12:23:02.878Z,36.47
2018-01-08T12:25:30.542Z,34.17
2018-01-08T12:27:58.210Z,51.50
2018-01-08T12:30:27.055Z,35.27
2018-01-08T12:32:54.914Z,44.07
2018-01-08T12:35:22.518Z,31.30
2018-01-08T12:37:50.138Z,32.50
2018-01-08T12:40:17.764Z,25.90
2018-01-08T12:42:46.150Z,29.20
2018-01-08T12:45:14.530Z,33.77
2018-01-08T12:47:43.242Z,29.03
2018-01-08T12:50:11.583Z,31.33
2018-01-08T12:52:39.197Z,26.20
2018-01-08T12:55:07.576Z,27.37
2018-01-08T12:57:35.948Z,40.00
2018-01-08T13:00:03.656Z,40.37
2018-01-08T13:02:31.254Z,38.53
2018-01-08T13:04:58.886Z,38.80
2018-01-08T13:07:26.497Z,60.17
2018-01-08T13:09:55.621Z,44.27
2018-01-08T13:12:23.330Z,37.00
2018-01-08T13:14:50.999Z,61.83
2018-01-08T13:17:18.618Z,49.33
2018-01-08T13:19:47.020Z,48.60
2018-01-08T13:22:14.643Z,40.53
2018-01-08T13:24:42.245Z,45.13
2018-01-08T13:27:10.652Z,43.90
2018-01-08T13:29:38.282Z,51.93
2018-01-08T13:32:06.668Z,37.30
2018-01-08T13:34:35.041Z,29.83
2018-01-08T13:37:02.627Z,29.43
2018-01-08T13:39:30.300Z,26.57
2018-01-08T13:41:57.866Z,30.43
2018-01-08T13:44:25.529Z,32.70
2018-01-08T13:46:53.126Z,32.00
2018-01-08T13:49:20.750Z,30.77
2018-01-08T13:51:49.123Z,28.13
2018-01-08T13:54:17.531Z,29.93
2018-01-08T13:56:45.128Z,26.10
2018-01-08T13:59:12.726Z,33.20
2018-01-08T14:01:40.343Z,32.27
2018-01-08T14:04:08.764Z,32.20
2018-01-08T14:06:36.388Z,32.60
2018-01-08T14:09:03.968Z,31.00
2018-01-08T14:11:31.692Z,38.03
2018-01-08T14:14:00.248Z,36.00
2018-01-08T14:16:27.853Z,33.73
2018-01-08T14:18:56.458Z,31.03
2018-01-08T14:21:24.067Z,31.30
2018-01-08T14:23:51.712Z,29.57
2018-01-08T14:26:19.402Z,36.37
2018-01-08T14:28:47.031Z,31.53
2018-01-08T14:31:15.440Z,33.20
2018-01-08T14:33:43.062Z,36.07
2018-01-08T14:36:11.576Z,37.60
2018-01-08T14:38:39.166Z,29.43
2018-01-08T14:41:06.792Z,26.47
2018-01-08T14:43:34.356Z,32.33
2018-01-08T14:46:02.018Z,36.87
2018-01-08T14:48:29.648Z,30.50
2018-01-08T14:50:57.267Z,30.67
2018-01-08T14:53:24.903Z,34.73
2018-01-08T14:55:53.278Z,31.43
2018-01-08T14:58:21.716Z,27.90
2018-01-08T15:00:49.371Z,32.67
2018-01-08T15:03:16.991Z,27.40
2018-01-08T15:05:45.331Z,31.40
2018-01-08T15:08:12.902Z,27.10
2018-01-08T15:10:40.542Z,31.77
2018-01-08T15:13:08.136Z,28.80
2018-01-08T15:15:35.757Z,31.70
2018-01-08T15:18:03.351Z,28.67
2018-01-08T15:20:30.961Z,28.40
2018-01-08T15:22:58.586Z,32.87
2018-01-08T15:25:26.189Z,27.50
2018-01-08T15:27:53.809Z,29.33
2018-01-08T15:30:21.431Z,29.43
2018-01-08T15:32:50.171Z,29.83
2018-01-08T15:35:17.775Z,30.03
2018-01-08T15:37:45.385Z,29.70
2018-01-08T15:40:13.030Z,30.37
2018-01-08T15:42:41.419Z,26.60
2018-01-08T15:45:09.129Z,26.20
2018-01-08T15:47:36.752Z,24.60
2018-01-08T15:50:05.148Z,25.70
2018-01-08T15:52:32.760Z,24.30
2018-01-08T15:55:00.367Z,31.20
2018-01-08T15:57:27.998Z,30.73
2018-01-08T15:59:56.442Z,27.93
2018-01-08T16:02:24.076Z,35.90
2018-01-08T16:04:52.431Z,31.67
2018-01-08T16:07:20.056Z,27.17
2018-01-08T16:09:47.686Z,27.37
2018-01-08T16:12:16.094Z,30.77
2018-01-08T16:14:43.731Z,26.80
2018-01-08T16:17:12.092Z,32.83
2018-01-08T16:19:40.517Z,35.53
2018-01-08T16:22:08.146Z,31.37
2018-01-08T16:24:36.597Z,29.17
2018-01-08T16:27:04.221Z,35.53
2018-01-08T16:29:32.608Z,34.20
2018-01-08T16:32:00.254Z,29.33
2018-01-08T16:34:28.642Z,29.67
2018-01-08T16:36:56.566Z,25.27
2018-01-08T16:39:24.160Z,32.37
2018-01-08T16:41:51.778Z,27.97
2018-01-08T16:44:19.404Z,25.97
2018-01-08T16:46:47.008Z,30.90
2018-01-08T16:49:14.641Z,24.30
2018-01-08T16:51:42.260Z,22.60
2018-01-08T16:54:10.051Z,31.20
2018-01-08T16:56:37.781Z,24.77
2018-01-08T16:59:05.547Z,25.60
2018-01-08T17:01:33.164Z,30.33
2018-01-08T17:04:00.889Z,30.80
2018-01-08T17:06:28.540Z,28.77
2018-01-08T17:08:56.922Z,28.50
2018-01-08T17:11:24.547Z,28.97
2018-01-08T17:13:52.171Z,27.10
2018-01-08T17:16:19.775Z,28.80
2018-01-08T17:18:47.404Z,32.90
2018-01-08T17:21:15.012Z,30.50
2018-01-08T17:23:42.657Z,29.60
2018-01-08T17:26:10.261Z,24.70
2018-01-08T17:28:38.637Z,27.23
2018-01-08T17:31:06.251Z,31.00
2018-01-08T17:33:33.848Z,31.23
2018-01-08T17:36:01.459Z,42.70
2018-01-08T17:38:29.865Z,29.03
2018-01-08T17:40:58.139Z,26.00
2018-01-08T17:43:25.781Z,29.90
2018-01-08T17:45:54.190Z,26.20
2018-01-08T17:48:21.833Z,34.37
2018-01-08T17:50:50.224Z,51.87
2018-01-08T17:53:18.644Z,43.83
2018-01-08T17:55:46.254Z,49.17
2018-01-08T17:58:13.939Z,35.20
2018-01-08T18:00:41.587Z,45.03
2018-01-08T18:03:09.247Z,25.80
2018-01-08T18:05:37.628Z,25.63
2018-01-08T18:08:05.266Z,26.10
2018-01-08T18:10:32.915Z,28.43
2018-01-08T18:13:00.539Z,27.23
2018-01-08T18:15:28.170Z,23.17
2018-01-08T18:17:55.779Z,24.97
2018-01-08T18:20:24.565Z,29.10
2018-01-08T18:22:53.101Z,25.63
2018-01-08T18:25:20.784Z,27.50
2018-01-08T18:27:48.535Z,24.40
2018-01-08T18:30:16.186Z,25.07
2018-01-08T18:32:43.942Z,23.10
2018-01-08T18:35:11.602Z,20.70
2018-01-08T18:37:39.983Z,24.23
2018-01-08T18:40:08.409Z,41.20
2018-01-08T18:42:36.036Z,30.50
2018-01-08T18:45:04.446Z,27.67
2018-01-08T18:47:32.053Z,25.37
2018-01-08T18:49:59.731Z,28.87
2018-01-08T18:52:27.339Z,26.70
2018-01-08T18:54:54.987Z,21.77
2018-01-08T18:57:23.596Z,20.23
2018-01-08T18:59:51.287Z,28.53
2018-01-08T19:02:18.953Z,19.47
2018-01-08T19:04:46.602Z,26.03
2018-01-08T19:07:14.382Z,29.63
2018-01-08T19:09:42.102Z,32.37
2018-01-08T19:12:10.547Z,33.73
2018-01-08T19:14:38.248Z,33.03
2018-01-08T19:17:06.803Z,22.27
2018-01-08T19:19:34.483Z,22.07
2018-01-08T19:22:02.173Z,23.80
2018-01-08T19:24:30.665Z,24.30
2018-01-08T19:26:59.135Z,62.60
2018-01-08T19:29:26.947Z,45.20
2018-01-08T19:31:54.737Z,31.17
2018-01-08T19:34:22.586Z,37.30
2018-01-08T19:36:50.286Z,41.70
2018-01-08T19:39:19.051Z,52.30
2018-01-08T19:41:46.799Z,44.27
2018-01-08T19:44:14.500Z,56.33
2018-01-08T19:46:42.201Z,47.87
2018-01-08T19:49:10.163Z,59.93
2018-01-08T19:51:37.810Z,52.37
2018-01-08T19:54:05.557Z,29.00
2018-01-08T19:56:33.277Z,180.80
2018-01-08T19:59:01.094Z,174.73
2018-01-08T20:01:28.833Z,59.87
2018-01-08T20:03:57.279Z,46.07
2018-01-08T20:06:25.024Z,23.87
2018-01-08T20:08:52.781Z,22.33
2018-01-08T20:11:20.667Z,26.13
2018-01-08T20:13:48.837Z,26.90
2018-01-08T20:16:16.601Z,24.63
2018-01-08T20:18:44.395Z,24.40
2018-01-08T20:21:12.072Z,24.90
2018-01-08T20:23:40.525Z,25.73
2018-01-08T20:26:08.267Z,28.33
2018-01-08T20:28:36.772Z,30.37
2018-01-08T20:31:04.522Z,23.50
2018-01-08T20:33:33.023Z,30.27
2018-01-08T20:36:00.782Z,24.63
2018-01-08T20:38:29.396Z,24.50
2018-01-08T20:40:57.164Z,26.03
2018-01-08T20:43:24.890Z,23.17
2018-01-08T20:45:54.339Z,23.77
2018-01-08T20:48:22.057Z,25.67
2018-01-08T20:50:49.740Z,21.37
2018-01-08T20:53:17.485Z,24.93
2018-01-08T20:55:45.116Z,24.80
2018-01-08T20:58:12.753Z,23.70
2018-01-08T21:00:41.182Z,25.63
2018-01-08T21:03:08.851Z,27.67
2018-01-08T21:05:36.506Z,22.10
2018-01-08T21:08:04.179Z,24.37
2018-01-08T21:10:31.852Z,21.60
2018-01-08T21:12:59.506Z,22.80
2018-01-08T21:15:27.170Z,24.03
2018-01-08T21:17:54.856Z,19.80
2018-01-08T21:20:22.536Z,20.40
2018-01-08T21:22:50.264Z,23.80
2018-01-08T21:25:17.959Z,26.03
2018-01-08T21:27:45.625Z,28.37
2018-01-08T21:30:13.244Z,27.97
2018-01-08T21:32:41.668Z,29.10
2018-01-08T21:35:09.344Z,36.23
2018-01-08T21:37:37.011Z,27.93
2018-01-08T21:40:04.683Z,25.90
2018-01-08T21:42:32.502Z,29.33
2018-01-08T21:45:00.882Z,29.10
2018-01-08T21:47:29.304Z,18.67
2018-01-08T21:49:56.921Z,23.63
2018-01-08T21:52:24.563Z,23.23
2018-01-08T21:54:52.176Z,29.47
2018-01-08T21:57:19.799Z,24.73
2018-01-08T21:59:47.431Z,26.77
2018-01-08T22:02:15.069Z,21.10
2018-01-08T22:04:43.131Z,26.33
2018-01-08T22:07:11.529Z,27.80
2018-01-08T22:09:39.926Z,25.93
2018-01-08T22:12:07.561Z,27.17
2018-01-08T22:14:35.181Z,26.00
2018-01-08T22:17:02.805Z,28.30
2018-01-08T22:19:31.171Z,28.00
2018-01-08T22:21:59.228Z,27.43
2018-01-08T22:24:26.873Z,27.77
2018-01-08T22:26:54.605Z,32.20
2018-01-08T22:29:22.234Z,26.40
2018-01-08T22:31:49.832Z,30.30
2018-01-08T22:34:18.242Z,30.67
2018-01-08T22:36:45.852Z,25.47
2018-01-08T22:39:15.125Z,31.27
2018-01-08T22:41:42.770Z,27.27
2018-01-08T22:44:10.374Z,29.40
2018-01-08T22:46:37.984Z,28.93
2018-01-08T22:49:06.344Z,29.37
2018-01-08T22:51:34.270Z,28.37
2018-01-08T22:54:01.887Z,28.53
2018-01-08T22:56:30.250Z,29.67
2018-01-08T22:58:57.889Z,29.10
2018-01-08T23:01:25.500Z,28.10
2018-01-08T23:03:53.124Z,29.63
2018-01-08T23:06:20.705Z,26.43
2018-01-08T23:08:48.312Z,30.53
2018-01-08T23:11:16.689Z,28.60
2018-01-08T23:13:45.161Z,30.20
2018-01-08T23:16:13.584Z,29.80
2018-01-08T23:18:41.197Z,27.10
2018-01-08T23:21:08.793Z,29.10
2018-01-08T23:23:37.170Z,28.27
2018-01-08T23:26:05.549Z,36.10
2018-01-08T23:28:33.195Z,26.67
2018-01-08T23:31:01.555Z,33.00
2018-01-08T23:33:29.237Z,26.67
2018-01-08T23:35:56.843Z,26.90
2018-01-08T23:38:25.211Z,29.80
2018-01-08T23:40:52.817Z,27.53
2018-01-08T23:43:20.425Z,29.77
2018-01-08T23:45:48.043Z,26.30
2018-01-08T23:48:15.639Z,26.43
2018-01-08T23:50:43.240Z,29.83
2018-01-08T23:53:12.369Z,24.50
2018-01-08T23:55:39.976Z,29.87
2018-01-08T23:58:07.597Z,25.63
